createdAt,value
2023-02-05T00:00:55.232Z,0.80
2023-02-05T00:03:22.395Z,0.80
2023-02-05T00:05:49.510Z,0.75
2023-02-05T00:08:16.622Z,0.60
2023-02-05T00:10:43.831Z,0.70
2023-02-05T00:13:11.203Z,0.60
2023-02-05T00:15:41.067Z,0.50
2023-02-05T00:18:08.194Z,0.70
2023-02-05T00:20:36.478Z,0.50
2023-02-05T00:23:04.299Z,0.60
2023-02-05T00:25:32.249Z,0.60
2023-02-05T00:28:00.652Z,0.80
2023-02-05T00:30:28.671Z,0.40
2023-02-05T00:32:56.511Z,0.75
2023-02-05T00:35:24.730Z,0.60
2023-02-05T00:37:51.887Z,0.60
2023-02-05T00:40:19.228Z,0.70
2023-02-05T00:42:46.367Z,0.60
2023-02-05T00:45:13.460Z,0.60
2023-02-05T00:47:40.624Z,0.70
2023-02-05T00:50:08.046Z,0.60
2023-02-05T00:52:35.899Z,0.60
2023-02-05T00:55:03.097Z,0.70
2023-02-05T00:57:30.637Z,0.45
2023-02-05T00:59:57.664Z,0.57
2023-02-05T01:02:25.773Z,0.43
2023-02-05T01:04:52.987Z,0.65
2023-02-05T01:07:20.645Z,0.50
2023-02-05T01:09:48.776Z,0.40
2023-02-05T01:12:16.045Z,0.60
2023-02-05T01:14:43.264Z,1.05
2023-02-05T01:17:10.574Z,0.45
2023-02-05T01:19:37.854Z,0.50
2023-02-05T01:22:05.592Z,0.43
2023-02-05T01:24:33.405Z,0.57
2023-02-05T01:27:01.023Z,1.35
2023-02-05T01:29:29.394Z,1.60
2023-02-05T01:31:57.007Z,2.00
2023-02-05T01:34:24.360Z,1.88
2023-02-05T01:36:51.543Z,1.92
2023-02-05T01:39:18.669Z,2.15
2023-02-05T01:41:46.589Z,2.40
2023-02-05T01:44:18.591Z,1.75
2023-02-05T01:46:47.100Z,2.20
2023-02-05T01:49:21.633Z,1.90
2023-02-05T01:54:19.812Z,1.67
2023-02-05T01:56:52.716Z,2.20
2023-02-05T01:59:24.693Z,2.45
2023-02-05T02:01:53.134Z,2.33
2023-02-05T02:04:52.710Z,1.95
2023-02-05T02:07:23.370Z,2.05
2023-02-05T02:09:52.438Z,2.10
2023-02-05T02:12:26.535Z,2.45
2023-02-05T02:17:25.548Z,1.92
2023-02-05T02:19:59.566Z,2.33
2023-02-05T02:22:42.151Z,1.77
2023-02-05T02:25:49.093Z,2.13
2023-02-05T02:28:38.450Z,2.03
2023-02-05T02:31:13.534Z,1.90
2023-02-05T02:34:02.889Z,1.85
2023-02-05T02:36:43.946Z,1.52
2023-02-05T02:39:22.293Z,1.50
2023-02-05T02:41:54.796Z,1.40
2023-02-05T02:44:49.423Z,1.60
2023-02-05T02:47:21.126Z,1.30
2023-02-05T02:49:57.039Z,1.80
2023-02-05T02:52:26.926Z,1.50
2023-02-05T02:54:57.932Z,1.60
2023-02-05T02:57:28.704Z,1.40
2023-02-05T03:00:01.354Z,1.27
2023-02-05T03:02:33.080Z,1.45
2023-02-05T03:05:07.337Z,1.05
2023-02-05T03:07:42.055Z,1.13
2023-02-05T03:10:22.698Z,1.00
2023-02-05T03:12:50.098Z,0.90
2023-02-05T03:15:17.713Z,1.02
2023-02-05T03:17:45.489Z,0.85
2023-02-05T03:20:21.530Z,1.00
2023-02-05T03:22:49.180Z,1.02
2023-02-05T03:25:19.361Z,1.30
2023-02-05T03:27:47.577Z,1.10
2023-02-05T03:30:15.711Z,0.90
2023-02-05T03:32:53.659Z,1.02
2023-02-05T03:35:44.133Z,0.90
2023-02-05T03:38:49.692Z,1.08
2023-02-05T03:42:02.046Z,0.90
2023-02-05T03:47:18.574Z,1.08
2023-02-05T03:49:52.968Z,1.00
2023-02-05T03:54:52.754Z,1.38
2023-02-05T03:57:29.620Z,1.20
2023-02-05T03:59:59.918Z,1.30
2023-02-05T04:02:29.489Z,1.17
2023-02-05T04:04:58.290Z,1.27
2023-02-05T04:07:25.723Z,1.23
2023-02-05T04:09:52.922Z,1.20
2023-02-05T04:12:20.252Z,1.10
2023-02-05T04:14:48.654Z,1.13
2023-02-05T04:17:15.979Z,1.30
2023-02-05T04:19:43.362Z,1.30
2023-02-05T04:22:12.487Z,1.40
2023-02-05T04:24:43.437Z,1.42
2023-02-05T04:27:11.102Z,1.42
2023-02-05T04:29:38.986Z,1.33
2023-02-05T04:32:07.235Z,1.40
2023-02-05T04:34:35.148Z,1.30
2023-02-05T04:37:03.639Z,1.17
2023-02-05T04:39:31.435Z,1.17
2023-02-05T04:41:58.629Z,1.10
2023-02-05T04:44:25.980Z,1.08
2023-02-05T04:46:53.069Z,1.20
2023-02-05T04:49:20.873Z,1.05
2023-02-05T04:51:48.099Z,1.30
2023-02-05T04:54:15.258Z,1.23
2023-02-05T04:56:42.771Z,0.95
2023-02-05T04:59:09.860Z,1.30
2023-02-05T05:01:37.383Z,1.30
2023-02-05T05:04:04.499Z,1.25
2023-02-05T05:06:32.046Z,1.13
2023-02-05T05:08:59.232Z,1.10
2023-02-05T05:11:26.796Z,1.23
2023-02-05T05:13:53.904Z,1.33
2023-02-05T05:16:21.054Z,1.45
2023-02-05T05:18:50.912Z,1.10
2023-02-05T05:21:18.084Z,0.90
2023-02-05T05:23:45.214Z,1.27
2023-02-05T05:26:12.736Z,1.00
2023-02-05T05:28:40.345Z,1.10
2023-02-05T05:31:10.101Z,1.00
2023-02-05T05:33:38.558Z,0.90
2023-02-05T05:36:07.293Z,1.08
2023-02-05T05:38:34.880Z,1.00
2023-02-05T05:41:22.149Z,1.20
2023-02-05T05:43:51.116Z,1.00
2023-02-05T05:46:22.957Z,1.40
2023-02-05T05:48:52.423Z,0.80
2023-02-05T05:51:20.453Z,1.33
2023-02-05T05:53:48.097Z,0.90
2023-02-05T05:56:16.079Z,0.82
2023-02-05T05:58:44.162Z,1.10
2023-02-05T06:01:13.035Z,0.75
2023-02-05T06:03:40.129Z,1.48
2023-02-05T06:06:09.060Z,0.68
2023-02-05T06:08:36.291Z,1.40
2023-02-05T06:11:03.822Z,1.08
2023-02-05T06:13:31.157Z,0.70
2023-02-05T06:15:58.497Z,1.10
2023-02-05T06:18:25.758Z,1.00
2023-02-05T06:20:52.958Z,1.20
2023-02-05T06:23:20.057Z,0.93
2023-02-05T06:25:47.413Z,1.00
2023-02-05T06:28:14.447Z,0.80
2023-02-05T06:30:41.790Z,1.00
2023-02-05T06:33:09.053Z,1.10
2023-02-05T06:35:36.648Z,0.77
2023-02-05T06:38:03.939Z,0.85
2023-02-05T06:40:31.121Z,1.10
2023-02-05T06:42:59.022Z,0.88
2023-02-05T06:45:26.224Z,0.90
2023-02-05T06:47:56.250Z,0.77
2023-02-05T06:50:24.148Z,1.00
2023-02-05T06:52:51.596Z,0.88
2023-02-05T06:55:19.072Z,1.40
2023-02-05T06:57:46.564Z,0.98
2023-02-05T07:00:16.085Z,1.35
2023-02-05T07:02:43.822Z,1.40
2023-02-05T07:05:11.024Z,1.55
2023-02-05T07:07:38.382Z,1.17
2023-02-05T07:10:05.823Z,1.35
2023-02-05T07:12:33.236Z,1.00
2023-02-05T07:15:00.522Z,1.10
2023-02-05T07:17:27.953Z,1.45
2023-02-05T07:19:55.223Z,1.13
2023-02-05T07:22:22.304Z,1.10
2023-02-05T07:24:49.598Z,1.02
2023-02-05T07:27:16.904Z,1.25
2023-02-05T07:29:44.243Z,1.02
2023-02-05T07:32:11.640Z,1.60
2023-02-05T07:34:38.995Z,0.90
2023-02-05T07:37:06.350Z,1.42
2023-02-05T07:39:33.547Z,1.70
2023-02-05T07:42:01.336Z,1.08
2023-02-05T07:44:37.256Z,1.35
2023-02-05T07:47:04.502Z,1.35
2023-02-05T07:49:31.684Z,1.30
2023-02-05T07:51:58.704Z,0.98
2023-02-05T07:54:26.100Z,1.50
2023-02-05T07:56:53.402Z,0.80
2023-02-05T07:59:20.801Z,0.90
2023-02-05T08:01:48.001Z,1.10
2023-02-05T08:04:15.096Z,1.10
2023-02-05T08:06:43.162Z,1.05
2023-02-05T08:09:11.445Z,1.08
2023-02-05T08:11:38.514Z,1.10
2023-02-05T08:14:05.798Z,1.13
2023-02-05T08:16:33.394Z,1.45
2023-02-05T08:19:00.711Z,1.20
2023-02-05T08:21:28.784Z,1.20
2023-02-05T08:23:58.688Z,1.00
2023-02-05T08:26:25.737Z,1.20
2023-02-05T08:28:52.834Z,1.30
2023-02-05T08:31:20.129Z,1.75
2023-02-05T08:33:47.922Z,0.95
2023-02-05T08:36:15.217Z,1.20
2023-02-05T08:38:42.594Z,0.90
2023-02-05T08:41:14.013Z,1.80
2023-02-05T08:43:45.806Z,1.02
2023-02-05T08:46:15.266Z,0.95
2023-02-05T08:48:42.735Z,1.20
2023-02-05T08:51:11.381Z,1.15
2023-02-05T08:53:38.773Z,0.80
2023-02-05T08:56:06.469Z,1.08
2023-02-05T08:58:33.609Z,0.80
2023-02-05T09:01:03.322Z,1.10
2023-02-05T09:03:31.384Z,0.60
2023-02-05T09:05:59.864Z,0.85
2023-02-05T09:08:29.410Z,0.70
2023-02-05T09:10:58.071Z,0.95
2023-02-05T09:13:25.893Z,0.80
2023-02-05T09:15:53.034Z,0.70
2023-02-05T09:18:20.317Z,0.82
2023-02-05T09:20:50.027Z,0.90
2023-02-05T09:23:18.602Z,0.80
2023-02-05T09:25:46.142Z,0.75
2023-02-05T09:28:14.895Z,0.75
2023-02-05T09:30:45.086Z,0.93
2023-02-05T09:33:13.203Z,0.90
2023-02-05T09:35:41.223Z,0.90
2023-02-05T09:38:08.416Z,1.00
2023-02-05T09:40:44.892Z,0.95
2023-02-05T09:43:21.788Z,0.90
2023-02-05T09:45:52.264Z,1.20
2023-02-05T09:48:40.524Z,0.75
2023-02-05T09:51:10.444Z,0.60
2023-02-05T09:53:42.784Z,1.00
2023-02-05T09:56:12.415Z,1.10
2023-02-05T09:58:47.699Z,1.33
2023-02-05T10:01:32.038Z,0.90
2023-02-05T10:04:03.341Z,1.15
2023-02-05T10:07:10.369Z,0.70
2023-02-05T10:09:39.829Z,0.90
2023-02-05T10:12:27.169Z,0.98
2023-02-05T10:15:17.377Z,0.82
2023-02-05T10:17:48.846Z,1.50
2023-02-05T10:20:31.813Z,1.05
2023-02-05T10:23:17.006Z,0.80
2023-02-05T10:26:07.402Z,0.77
2023-02-05T10:29:03.737Z,0.80
2023-02-05T10:32:10.757Z,1.00
2023-02-05T10:34:49.120Z,0.80
2023-02-05T10:37:19.825Z,0.70
2023-02-05T10:39:49.537Z,0.77
2023-02-05T10:42:17.813Z,0.90
2023-02-05T10:44:49.082Z,0.77
2023-02-05T10:47:16.145Z,0.90
2023-02-05T10:49:47.000Z,0.60
2023-02-05T10:52:15.599Z,0.80
2023-02-05T10:54:43.378Z,0.77
2023-02-05T10:57:14.773Z,0.70
2023-02-05T11:00:07.999Z,1.02
2023-02-05T11:02:40.965Z,0.93
2023-02-05T11:05:36.014Z,1.08
2023-02-05T11:08:03.930Z,0.60
2023-02-05T11:10:34.714Z,0.65
2023-02-05T11:13:21.531Z,0.80
2023-02-05T11:15:59.727Z,0.80
2023-02-05T11:18:32.970Z,0.75
2023-02-05T11:21:02.877Z,0.60
2023-02-05T11:23:32.293Z,0.88
2023-02-05T11:26:02.282Z,1.00
2023-02-05T11:28:32.119Z,0.93
2023-02-05T11:31:21.836Z,0.85
2023-02-05T11:33:49.582Z,0.70
2023-02-05T11:36:22.445Z,0.90
2023-02-05T11:38:54.036Z,0.95
2023-02-05T11:41:29.683Z,0.95
2023-02-05T11:44:01.234Z,0.90
2023-02-05T11:46:32.596Z,0.73
2023-02-05T11:49:02.154Z,0.90
2023-02-05T11:51:36.876Z,0.80
2023-02-05T11:54:13.218Z,0.90
2023-02-05T11:56:40.492Z,0.80
2023-02-05T11:59:22.132Z,0.80
2023-02-05T12:01:49.452Z,1.05
2023-02-05T12:04:19.909Z,0.90
2023-02-05T12:06:53.480Z,0.98
2023-02-05T12:09:24.312Z,0.95
2023-02-05T12:12:04.813Z,0.90
2023-02-05T12:15:05.130Z,0.80
2023-02-05T12:17:41.543Z,0.70
2023-02-05T12:20:33.188Z,0.90
2023-02-05T12:23:23.878Z,0.95
2023-02-05T12:25:58.069Z,1.08
2023-02-05T12:29:04.978Z,0.90
2023-02-05T12:31:48.867Z,1.05
2023-02-05T12:34:43.555Z,0.98
2023-02-05T12:37:25.435Z,0.98
2023-02-05T12:40:01.199Z,0.93
2023-02-05T12:42:39.920Z,1.08
2023-02-05T12:45:24.002Z,1.05
2023-02-05T12:47:58.519Z,1.10
2023-02-05T12:50:33.168Z,1.08
2023-02-05T12:55:48.312Z,1.30
2023-02-05T12:58:17.248Z,1.05
2023-02-05T13:00:51.388Z,1.23
2023-02-05T13:03:42.425Z,1.08
2023-02-05T13:06:16.716Z,1.10
2023-02-05T13:08:58.361Z,1.15
2023-02-05T13:11:39.998Z,1.00
2023-02-05T13:14:16.279Z,1.02
2023-02-05T13:16:52.789Z,1.00
2023-02-05T13:19:42.780Z,1.15
2023-02-05T13:22:40.311Z,0.98
2023-02-05T13:25:47.518Z,1.25
2023-02-05T13:28:47.758Z,1.10
2023-02-05T13:31:24.614Z,0.80
2023-02-05T13:33:54.128Z,0.93
2023-02-05T13:36:24.495Z,1.10
2023-02-05T13:39:07.695Z,1.10
2023-02-05T13:41:38.352Z,1.10
2023-02-05T13:44:07.566Z,1.00
2023-02-05T13:46:41.059Z,1.42
2023-02-05T13:49:12.698Z,1.10
2023-02-05T13:52:04.279Z,1.20
2023-02-05T13:54:38.811Z,1.10
2023-02-05T13:57:18.309Z,1.00
2023-02-05T13:59:51.705Z,0.85
2023-02-05T14:02:40.783Z,0.88
2023-02-05T14:05:08.485Z,1.13
2023-02-05T14:07:43.276Z,1.20
2023-02-05T14:10:26.100Z,1.25
2023-02-05T14:12:54.568Z,0.98
2023-02-05T14:15:23.350Z,0.95
2023-02-05T14:17:50.461Z,0.85
2023-02-05T14:20:24.916Z,1.00
2023-02-05T14:22:55.934Z,0.88
2023-02-05T14:25:39.142Z,0.95
2023-02-05T14:28:17.532Z,0.90
2023-02-05T14:30:52.426Z,0.98
2023-02-05T14:33:41.533Z,1.30
2023-02-05T14:36:17.149Z,1.00
2023-02-05T14:38:51.235Z,1.30
2023-02-05T14:41:21.252Z,1.50
2023-02-05T14:44:16.735Z,1.10
2023-02-05T14:49:26.367Z,0.80
2023-02-05T14:52:00.237Z,1.00
2023-02-05T14:54:33.101Z,1.05
2023-02-05T14:57:17.363Z,0.73
2023-02-05T15:00:02.531Z,0.65
2023-02-05T15:03:05.205Z,0.90
2023-02-05T15:05:52.216Z,1.00
2023-02-05T15:08:22.705Z,0.80
2023-02-05T15:11:16.983Z,1.17
2023-02-05T15:14:19.991Z,0.90
2023-02-05T15:17:10.818Z,0.95
2023-02-05T15:19:46.715Z,0.70
2023-02-05T15:22:52.244Z,1.13
2023-02-05T15:25:30.458Z,1.02
2023-02-05T15:28:05.422Z,1.20
2023-02-05T15:30:43.741Z,0.88
2023-02-05T15:33:20.277Z,0.90
2023-02-05T15:35:51.566Z,0.88
2023-02-05T15:38:19.734Z,1.00
2023-02-05T15:40:47.161Z,0.98
2023-02-05T15:43:17.757Z,1.20
2023-02-05T15:45:45.970Z,1.55
2023-02-05T15:48:18.015Z,1.10
2023-02-05T15:50:52.532Z,2.08
2023-02-05T15:53:47.160Z,2.78
2023-02-05T15:56:17.025Z,2.00
2023-02-05T15:58:55.207Z,1.98
2023-02-05T16:01:25.687Z,1.40
2023-02-05T16:03:52.971Z,1.45
2023-02-05T16:06:23.153Z,1.90
2023-02-05T16:08:53.657Z,1.30
2023-02-05T16:11:30.945Z,1.25
2023-02-05T16:14:16.816Z,1.00
2023-02-05T16:17:03.338Z,0.90
2023-02-05T16:19:40.856Z,1.15
2023-02-05T16:22:21.488Z,0.80
2023-02-05T16:24:51.898Z,0.50
2023-02-05T16:27:29.626Z,0.55
2023-02-05T16:29:59.519Z,0.93
2023-02-05T16:32:34.119Z,0.80
2023-02-05T16:37:31.329Z,1.10
2023-02-05T16:40:02.207Z,0.98
2023-02-05T16:42:37.103Z,0.80
2023-02-05T16:45:19.680Z,1.25
2023-02-05T16:48:19.689Z,1.08
2023-02-05T16:50:46.855Z,1.17
2023-02-05T16:53:18.459Z,0.90
2023-02-05T16:55:45.741Z,1.10
2023-02-05T16:58:19.105Z,1.00
2023-02-05T17:00:54.202Z,1.20
2023-02-05T17:03:21.771Z,1.40
2023-02-05T17:06:00.579Z,1.10
2023-02-05T17:08:31.941Z,1.30
2023-02-05T17:11:03.345Z,1.50
2023-02-05T17:13:40.943Z,1.50
2023-02-05T17:16:24.517Z,1.83
2023-02-05T17:19:00.924Z,2.50
2023-02-05T17:21:31.844Z,2.65
2023-02-05T17:24:01.916Z,1.95
2023-02-05T17:26:32.382Z,2.63
2023-02-05T17:29:03.017Z,3.30
2023-02-05T17:31:32.365Z,3.17
2023-02-05T17:33:59.909Z,2.60
2023-02-05T17:36:27.934Z,2.92
2023-02-05T17:38:55.558Z,4.00
2023-02-05T17:41:45.488Z,6.55
2023-02-05T17:44:15.911Z,6.88
2023-02-05T17:46:44.376Z,9.57
2023-02-05T17:49:12.574Z,8.75
2023-02-05T17:51:42.791Z,5.68
2023-02-05T17:54:13.805Z,4.38
2023-02-05T17:56:42.413Z,3.20
2023-02-05T17:59:13.804Z,4.05
2023-02-05T18:01:41.302Z,5.45
2023-02-05T18:04:08.704Z,5.90
2023-02-05T18:06:37.270Z,5.35
2023-02-05T18:09:05.333Z,4.95
2023-02-05T18:11:32.789Z,5.70
2023-02-05T18:13:59.991Z,4.82
2023-02-05T18:16:27.607Z,5.60
2023-02-05T18:18:54.713Z,4.97
2023-02-05T18:21:22.078Z,4.60
2023-02-05T18:23:50.588Z,5.13
2023-02-05T18:26:18.073Z,4.80
2023-02-05T18:28:46.885Z,4.63
2023-02-05T18:31:14.892Z,4.68
2023-02-05T18:33:42.369Z,4.13
2023-02-05T18:36:11.915Z,3.88
2023-02-05T18:38:43.091Z,4.03
2023-02-05T18:41:16.156Z,3.85
2023-02-05T18:43:43.748Z,3.70
2023-02-05T18:46:14.830Z,4.38
2023-02-05T18:48:42.647Z,3.65
2023-02-05T18:51:13.988Z,3.72
2023-02-05T18:53:43.157Z,3.72
2023-02-05T18:56:15.347Z,4.18
2023-02-05T18:58:44.442Z,6.18
2023-02-05T19:01:15.116Z,9.93
2023-02-05T19:03:43.677Z,7.03
2023-02-05T19:06:13.749Z,8.77
2023-02-05T19:08:40.840Z,8.57
2023-02-05T19:11:10.668Z,8.45
2023-02-05T19:13:38.250Z,8.02
2023-02-05T19:16:06.696Z,11.65
2023-02-05T19:18:33.975Z,13.85
2023-02-05T19:21:06.317Z,9.85
2023-02-05T19:23:34.615Z,6.15
2023-02-05T19:26:04.976Z,7.22
2023-02-05T19:28:32.756Z,8.57
2023-02-05T19:31:05.868Z,7.90
2023-02-05T19:33:33.912Z,7.32
2023-02-05T19:36:02.155Z,6.00
2023-02-05T19:38:29.952Z,7.00
2023-02-05T19:40:57.138Z,5.88
2023-02-05T19:43:24.637Z,5.45
2023-02-05T19:45:51.944Z,5.68
2023-02-05T19:48:19.199Z,5.05
2023-02-05T19:50:46.284Z,7.18
2023-02-05T19:53:13.619Z,6.68
2023-02-05T19:55:40.727Z,6.38
2023-02-05T19:58:08.445Z,7.07
2023-02-05T20:00:35.755Z,7.68
2023-02-05T20:03:03.416Z,8.32
2023-02-05T20:05:30.597Z,7.95
2023-02-05T20:07:57.874Z,7.82
2023-02-05T20:10:24.870Z,7.60
2023-02-05T20:12:52.105Z,6.75
2023-02-05T20:15:19.556Z,6.32
2023-02-05T20:17:46.836Z,6.43
2023-02-05T20:20:22.239Z,6.43
2023-02-05T20:22:55.355Z,6.28
2023-02-05T20:25:22.422Z,5.85
2023-02-05T20:27:49.659Z,5.30
2023-02-05T20:30:36.786Z,6.50
2023-02-05T20:33:04.215Z,6.47
2023-02-05T20:35:31.366Z,5.88
2023-02-05T20:37:58.597Z,6.30
2023-02-05T20:40:25.889Z,5.97
2023-02-05T20:42:53.676Z,6.13
2023-02-05T20:45:20.990Z,4.88
2023-02-05T20:47:48.197Z,4.65
2023-02-05T20:50:15.703Z,4.65
2023-02-05T20:52:43.073Z,4.40
2023-02-05T20:55:10.192Z,4.72
2023-02-05T20:57:37.234Z,4.88
2023-02-05T21:00:04.835Z,4.80
2023-02-05T21:02:33.243Z,5.13
2023-02-05T21:05:00.378Z,4.25
2023-02-05T21:07:29.781Z,4.28
2023-02-05T21:09:57.379Z,5.05
2023-02-05T21:12:29.210Z,5.00
2023-02-05T21:14:56.367Z,4.90
2023-02-05T21:17:23.373Z,5.40
2023-02-05T21:19:50.561Z,6.35
2023-02-05T21:22:17.600Z,6.22
2023-02-05T21:24:44.723Z,6.50
2023-02-05T21:27:11.950Z,6.32
2023-02-05T21:29:39.245Z,6.78
2023-02-05T21:32:06.376Z,8.52
2023-02-05T21:34:33.903Z,8.75
2023-02-05T21:37:01.295Z,5.90
2023-02-05T21:39:28.677Z,5.55
2023-02-05T21:41:56.079Z,6.38
2023-02-05T21:44:24.503Z,8.50
2023-02-05T21:46:53.970Z,7.90
2023-02-05T21:49:21.094Z,6.13
2023-02-05T21:51:50.119Z,5.57
2023-02-05T21:54:17.456Z,4.85
2023-02-05T21:56:44.723Z,5.50
2023-02-05T21:59:13.269Z,5.53
2023-02-05T22:01:42.172Z,4.97
2023-02-05T22:04:12.718Z,5.50
2023-02-05T22:06:40.230Z,5.60
2023-02-05T22:09:09.904Z,5.53
2023-02-05T22:11:39.477Z,5.13
2023-02-05T22:14:07.221Z,5.20
2023-02-05T22:16:35.731Z,5.43
2023-02-05T22:19:04.120Z,5.68
2023-02-05T22:21:35.040Z,5.32
2023-02-05T22:24:04.149Z,5.50
2023-02-05T22:26:34.299Z,5.63
2023-02-05T22:29:02.676Z,5.40
2023-02-05T22:31:30.036Z,5.13
2023-02-05T22:33:57.642Z,5.50
2023-02-05T22:36:27.537Z,5.28
2023-02-05T22:38:55.988Z,5.13
2023-02-05T22:41:27.571Z,4.97
2023-02-05T22:43:56.046Z,4.28
2023-02-05T22:46:26.202Z,4.32
2023-02-05T22:48:54.548Z,5.30
2023-02-05T22:51:24.924Z,4.35
2023-02-05T22:53:53.989Z,5.00
2023-02-05T22:56:21.541Z,4.60
2023-02-05T22:58:49.750Z,4.60
2023-02-05T23:01:18.254Z,5.07
2023-02-05T23:03:47.058Z,4.90
2023-02-05T23:06:16.665Z,4.57
2023-02-05T23:08:45.074Z,4.50
2023-02-05T23:11:14.536Z,5.20
2023-02-05T23:13:42.549Z,4.78
2023-02-05T23:16:14.262Z,3.85
2023-02-05T23:18:42.342Z,4.60
2023-02-05T23:21:11.839Z,4.20
2023-02-05T23:23:38.926Z,4.32
2023-02-05T23:26:09.626Z,4.22
2023-02-05T23:28:37.634Z,4.03
2023-02-05T23:31:05.010Z,3.90
2023-02-05T23:33:33.652Z,3.22
2023-02-05T23:36:00.924Z,4.40
2023-02-05T23:38:28.782Z,4.07
2023-02-05T23:40:56.783Z,3.83
2023-02-05T23:43:24.518Z,3.53
2023-02-05T23:45:53.546Z,4.25
2023-02-05T23:48:20.851Z,3.10
2023-02-05T23:50:50.587Z,4.05
2023-02-05T23:53:21.070Z,3.17
2023-02-05T23:55:50.020Z,4.40
2023-02-05T23:58:18.913Z,3.50
